Airfield :







YOU CAN JOIN US ON...

 
LOGIN :

Register | Disclaimer

   EN    FR    IT 

 









Legend :    VFR   Marginal VFR   IFR   Intensive IFR   Very Intensive IFR
Visi :
Ceiling :
>= 8 km
>= 3000ft
5 to 8 km
1000 to 3000 ft
1500m to 5 km
500 to 1000 ft
800 to 1500m
200 to 500 ft
< 800m
< 200 ft
Symbols :   Thunderstorms  Fog  Heavy snow  Heavy precipitations  Wind > 20 kt






- Airport Elevation : 108 ft
- IATA code : YGP


CYGP - Gaspé

CURRENT METAR :
  • 290400Z VRB02KT 12SM VCFG FEW002 FEW037 12/12 A2953 RMK ST1SC1 SC TR VIS LWR S VCFG SLP001

EXPIRED METARs :
  • 290300Z 01007KT 12SM VCFG FEW002 FEW014 SCT040 13/13 A2954 RMK SF1SC2SC1 SF TR VIS LWR S VCFG SLP005 DENSITY ALT 400FT
  • 290250Z 03005KT 330V090 12SM VCFG FEW002 FEW015 SCT040 13/13 A2954 RMK SF1SC2SC1 SF TR VIS LWR S VCFG SLP006 DENSITY ALT 400FT
  • 290232Z 10007KT 12SM SCT014 13/13 A2954 RMK SC3 SLP004 DENSITY ALT 400FT
  • 290200Z 07005KT 060V220 10SM BKN015 OVC034 14/13 A2955 RMK SC6SC2 SLP008 DENSITY ALT 500FT
  • 290100Z 00000KT 12SM VCFG BKN015 BKN041 BKN069 BKN280 16/14 A2955 RMK SC5SC1AC1CI1 AC TR CI TR VIS LWR S VCFG SLP010 DENSITY ALT 700FT
  • 290000Z VRB02KT 12SM VCFG BKN017 BKN029 BKN280 17/15 A2954 RMK SC6SC1CI1 CI TR VIS LWR S VCFG SLP007 DENSITY ALT 800FT

TAF TAF CYGP
Valid from the 29 at 02:00 until the 29 at 14:00 UTC


290140Z 2902/2914 VRB03KT P6SM SCT006 BKN025
TEMPO 2902/2905 3SM -RA BR BKN007 OVC015
PROB40 2902/2905 1/2SM FG VV002
FM290500 25007KT P6SM SCT005 BKN030
TEMPO 2905/2910 4SM BR BKN015
PROB30 2905/2910 1SM BR BKN003
FM291000 27007KT P6SM BKN040
BECMG 2912/2914 25012G22KT RMK NXT FCST BY 290800Z
CZUL FIR / North America



MET'MAP, your aeronautical weather chart ! - Copyright ORBIFLY December 2007 - Disclaimer

ORBIFLY MET'MAP TEAM :

Programming & Development : Alexandra Zaïnal
Original concept : Baudouin d'Aumeries
Technical & hardware support : Manuel Goepfert
Assistance : Marc-Olivier Méhu




SOURCES & CREDITS :

   NOAA